sensor_id;sensor_type;location;lat;lon;timestamp;P1;durP1;ratioP1;P2;durP2;ratioP2
37777;SDS011;23615;51.506;7.678;2023-04-25T00:00:17;8.95;;;3.88;;
37777;SDS011;23615;51.506;7.678;2023-04-25T00:02:43;8.07;;;4.20;;
37777;SDS011;23615;51.506;7.678;2023-04-25T00:05:08;8.87;;;4.37;;
37777;SDS011;23615;51.506;7.678;2023-04-25T00:07:33;11.37;;;4.30;;
37777;SDS011;23615;51.506;7.678;2023-04-25T00:09:59;11.07;;;4.90;;
37777;SDS011;23615;51.506;7.678;2023-04-25T00:12:25;8.18;;;4.03;;
37777;SDS011;23615;51.506;7.678;2023-04-25T00:14:53;10.93;;;4.43;;
37777;SDS011;23615;51.506;7.678;2023-04-25T00:17:18;5.87;;;3.37;;
37777;SDS011;23615;51.506;7.678;2023-04-25T00:19:44;8.30;;;3.92;;
37777;SDS011;23615;51.506;7.678;2023-04-25T00:22:11;7.03;;;4.32;;
37777;SDS011;23615;51.506;7.678;2023-04-25T00:24:36;11.40;;;4.68;;
37777;SDS011;23615;51.506;7.678;2023-04-25T00:27:02;8.87;;;4.20;;
37777;SDS011;23615;51.506;7.678;2023-04-25T00:29:27;9.93;;;4.03;;
37777;SDS011;23615;51.506;7.678;2023-04-25T00:31:52;9.30;;;3.93;;
37777;SDS011;23615;51.506;7.678;2023-04-25T00:34:18;8.07;;;4.17;;
37777;SDS011;23615;51.506;7.678;2023-04-25T00:36:43;11.68;;;4.15;;
37777;SDS011;23615;51.506;7.678;2023-04-25T00:39:08;10.40;;;3.92;;
37777;SDS011;23615;51.506;7.678;2023-04-25T00:41:34;11.87;;;4.50;;
37777;SDS011;23615;51.506;7.678;2023-04-25T00:43:59;10.15;;;4.18;;
37777;SDS011;23615;51.506;7.678;2023-04-25T00:46:26;7.78;;;3.85;;
37777;SDS011;23615;51.506;7.678;2023-04-25T00:48:51;11.27;;;4.63;;
37777;SDS011;23615;51.506;7.678;2023-04-25T00:51:18;8.23;;;3.77;;
37777;SDS011;23615;51.506;7.678;2023-04-25T00:53:45;9.73;;;3.70;;
37777;SDS011;23615;51.506;7.678;2023-04-25T00:56:10;7.00;;;4.60;;
37777;SDS011;23615;51.506;7.678;2023-04-25T00:58:36;9.20;;;4.70;;
37777;SDS011;23615;51.506;7.678;2023-04-25T01:01:02;9.88;;;5.70;;
37777;SDS011;23615;51.506;7.678;2023-04-25T01:03:27;10.77;;;5.60;;
37777;SDS011;23615;51.506;7.678;2023-04-25T01:05:53;11.02;;;5.40;;
37777;SDS011;23615;51.506;7.678;2023-04-25T01:08:20;10.63;;;6.00;;
37777;SDS011;23615;51.506;7.678;2023-04-25T01:10:48;8.83;;;5.63;;
37777;SDS011;23615;51.506;7.678;2023-04-25T01:13:14;10.17;;;5.63;;
37777;SDS011;23615;51.506;7.678;2023-04-25T01:15:39;13.37;;;5.87;;
37777;SDS011;23615;51.506;7.678;2023-04-25T01:18:05;9.77;;;6.32;;
37777;SDS011;23615;51.506;7.678;2023-04-25T01:20:30;12.55;;;6.38;;
37777;SDS011;23615;51.506;7.678;2023-04-25T01:22:57;11.40;;;6.22;;
37777;SDS011;23615;51.506;7.678;2023-04-25T01:25:22;12.33;;;6.30;;
37777;SDS011;23615;51.506;7.678;2023-04-25T01:27:48;10.82;;;5.80;;
37777;SDS011;23615;51.506;7.678;2023-04-25T01:30:14;8.83;;;6.13;;
37777;SDS011;23615;51.506;7.678;2023-04-25T01:32:40;9.20;;;5.63;;
37777;SDS011;23615;51.506;7.678;2023-04-25T01:35:08;8.80;;;5.23;;
37777;SDS011;23615;51.506;7.678;2023-04-25T01:37:38;10.18;;;5.65;;
37777;SDS011;23615;51.506;7.678;2023-04-25T01:40:09;11.43;;;5.70;;
37777;SDS011;23615;51.506;7.678;2023-04-25T01:42:36;11.18;;;5.70;;
37777;SDS011;23615;51.506;7.678;2023-04-25T01:45:03;8.90;;;5.72;;
37777;SDS011;23615;51.506;7.678;2023-04-25T01:47:29;8.50;;;5.68;;
37777;SDS011;23615;51.506;7.678;2023-04-25T01:49:55;8.53;;;6.10;;
37777;SDS011;23615;51.506;7.678;2023-04-25T01:52:20;9.33;;;6.03;;
37777;SDS011;23615;51.506;7.678;2023-04-25T01:54:45;8.93;;;5.83;;
37777;SDS011;23615;51.506;7.678;2023-04-25T01:57:11;9.40;;;5.95;;
37777;SDS011;23615;51.506;7.678;2023-04-25T01:59:37;11.97;;;6.43;;
37777;SDS011;23615;51.506;7.678;2023-04-25T02:02:02;8.95;;;6.07;;
37777;SDS011;23615;51.506;7.678;2023-04-25T02:04:29;8.63;;;5.57;;
37777;SDS011;23615;51.506;7.678;2023-04-25T02:06:57;9.02;;;6.03;;
37777;SDS011;23615;51.506;7.678;2023-04-25T02:09:22;9.73;;;5.82;;
37777;SDS011;23615;51.506;7.678;2023-04-25T02:11:48;10.82;;;6.25;;
37777;SDS011;23615;51.506;7.678;2023-04-25T02:14:13;8.32;;;5.50;;
37777;SDS011;23615;51.506;7.678;2023-04-25T02:16:39;10.17;;;7.30;;
37777;SDS011;23615;51.506;7.678;2023-04-25T02:19:05;8.80;;;6.90;;
37777;SDS011;23615;51.506;7.678;2023-04-25T02:21:31;9.77;;;6.78;;
37777;SDS011;23615;51.506;7.678;2023-04-25T02:23:57;9.35;;;7.13;;
37777;SDS011;23615;51.506;7.678;2023-04-25T02:26:22;11.90;;;7.63;;
37777;SDS011;23615;51.506;7.678;2023-04-25T02:28:51;11.52;;;8.15;;
37777;SDS011;23615;51.506;7.678;2023-04-25T02:31:16;11.67;;;8.27;;
37777;SDS011;23615;51.506;7.678;2023-04-25T02:33:42;10.33;;;6.77;;
37777;SDS011;23615;51.506;7.678;2023-04-25T02:36:08;12.43;;;6.70;;
37777;SDS011;23615;51.506;7.678;2023-04-25T02:38:33;10.18;;;6.68;;
37777;SDS011;23615;51.506;7.678;2023-04-25T02:40:59;11.15;;;6.45;;
37777;SDS011;23615;51.506;7.678;2023-04-25T02:43:24;9.57;;;7.00;;
37777;SDS011;23615;51.506;7.678;2023-04-25T02:45:50;8.73;;;6.60;;
37777;SDS011;23615;51.506;7.678;2023-04-25T02:48:15;11.07;;;7.80;;
37777;SDS011;23615;51.506;7.678;2023-04-25T02:50:40;10.80;;;7.57;;
37777;SDS011;23615;51.506;7.678;2023-04-25T02:53:06;9.93;;;7.30;;
37777;SDS011;23615;51.506;7.678;2023-04-25T02:55:31;11.20;;;7.77;;
37777;SDS011;23615;51.506;7.678;2023-04-25T02:57:56;15.20;;;8.40;;
37777;SDS011;23615;51.506;7.678;2023-04-25T03:00:22;11.50;;;7.53;;
37777;SDS011;23615;51.506;7.678;2023-04-25T03:02:47;12.57;;;7.50;;
37777;SDS011;23615;51.506;7.678;2023-04-25T03:05:13;10.00;;;7.97;;
37777;SDS011;23615;51.506;7.678;2023-04-25T03:07:38;13.52;;;8.60;;
37777;SDS011;23615;51.506;7.678;2023-04-25T03:10:05;13.05;;;8.82;;
37777;SDS011;23615;51.506;7.678;2023-04-25T03:12:33;12.95;;;8.98;;
37777;SDS011;23615;51.506;7.678;2023-04-25T03:14:58;11.77;;;7.83;;
37777;SDS011;23615;51.506;7.678;2023-04-25T03:17:24;11.40;;;7.93;;
37777;SDS011;23615;51.506;7.678;2023-04-25T03:19:49;11.87;;;7.97;;
37777;SDS011;23615;51.506;7.678;2023-04-25T03:22:14;11.47;;;8.10;;
37777;SDS011;23615;51.506;7.678;2023-04-25T03:24:40;11.38;;;8.00;;
37777;SDS011;23615;51.506;7.678;2023-04-25T03:27:05;13.45;;;7.85;;
37777;SDS011;23615;51.506;7.678;2023-04-25T03:29:30;12.00;;;7.97;;
37777;SDS011;23615;51.506;7.678;2023-04-25T03:31:56;13.68;;;8.15;;
37777;SDS011;23615;51.506;7.678;2023-04-25T03:34:21;11.10;;;7.90;;
37777;SDS011;23615;51.506;7.678;2023-04-25T03:36:46;14.57;;;8.85;;
37777;SDS011;23615;51.506;7.678;2023-04-25T03:39:12;13.80;;;9.57;;
37777;SDS011;23615;51.506;7.678;2023-04-25T03:41:37;15.33;;;9.30;;
37777;SDS011;23615;51.506;7.678;2023-04-25T03:44:03;13.67;;;8.97;;
37777;SDS011;23615;51.506;7.678;2023-04-25T03:46:28;13.60;;;8.57;;
37777;SDS011;23615;51.506;7.678;2023-04-25T03:48:53;14.33;;;8.93;;
37777;SDS011;23615;51.506;7.678;2023-04-25T03:51:19;13.53;;;8.27;;
37777;SDS011;23615;51.506;7.678;2023-04-25T03:53:44;12.83;;;7.70;;
37777;SDS011;23615;51.506;7.678;2023-04-25T03:56:09;12.98;;;7.78;;
37777;SDS011;23615;51.506;7.678;2023-04-25T03:58:34;11.93;;;8.77;;
37777;SDS011;23615;51.506;7.678;2023-04-25T04:01:00;13.10;;;7.80;;
37777;SDS011;23615;51.506;7.678;2023-04-25T04:03:27;13.95;;;7.78;;
37777;SDS011;23615;51.506;7.678;2023-04-25T04:05:53;15.03;;;8.00;;
37777;SDS011;23615;51.506;7.678;2023-04-25T04:08:18;12.10;;;7.40;;
37777;SDS011;23615;51.506;7.678;2023-04-25T04:10:43;12.80;;;7.95;;
37777;SDS011;23615;51.506;7.678;2023-04-25T04:13:08;12.73;;;7.70;;
37777;SDS011;23615;51.506;7.678;2023-04-25T04:15:34;12.37;;;7.63;;
37777;SDS011;23615;51.506;7.678;2023-04-25T04:17:59;13.00;;;7.63;;
37777;SDS011;23615;51.506;7.678;2023-04-25T04:20:27;13.25;;;6.65;;
37777;SDS011;23615;51.506;7.678;2023-04-25T04:22:54;11.52;;;6.78;;
37777;SDS011;23615;51.506;7.678;2023-04-25T04:25:19;12.75;;;6.95;;
37777;SDS011;23615;51.506;7.678;2023-04-25T04:27:44;11.90;;;6.37;;
37777;SDS011;23615;51.506;7.678;2023-04-25T04:30:11;11.60;;;5.93;;
37777;SDS011;23615;51.506;7.678;2023-04-25T04:32:37;10.40;;;5.30;;
37777;SDS011;23615;51.506;7.678;2023-04-25T04:35:02;12.37;;;5.77;;
37777;SDS011;23615;51.506;7.678;2023-04-25T04:37:29;14.37;;;5.00;;
37777;SDS011;23615;51.506;7.678;2023-04-25T04:39:54;13.20;;;5.03;;
37777;SDS011;23615;51.506;7.678;2023-04-25T04:42:20;10.90;;;5.20;;
37777;SDS011;23615;51.506;7.678;2023-04-25T04:44:46;11.80;;;5.50;;
37777;SDS011;23615;51.506;7.678;2023-04-25T04:47:11;10.97;;;5.40;;
37777;SDS011;23615;51.506;7.678;2023-04-25T04:49:37;10.52;;;5.20;;
37777;SDS011;23615;51.506;7.678;2023-04-25T04:52:02;10.07;;;5.40;;
37777;SDS011;23615;51.506;7.678;2023-04-25T04:54:28;7.97;;;4.60;;
37777;SDS011;23615;51.506;7.678;2023-04-25T04:56:53;8.93;;;3.87;;
37777;SDS011;23615;51.506;7.678;2023-04-25T04:59:18;8.10;;;4.00;;
37777;SDS011;23615;51.506;7.678;2023-04-25T05:01:44;6.57;;;3.10;;
37777;SDS011;23615;51.506;7.678;2023-04-25T05:04:10;5.05;;;2.67;;
37777;SDS011;23615;51.506;7.678;2023-04-25T05:06:36;12.17;;;3.33;;
37777;SDS011;23615;51.506;7.678;2023-04-25T05:09:01;5.63;;;2.20;;
37777;SDS011;23615;51.506;7.678;2023-04-25T05:11:26;9.03;;;2.10;;
37777;SDS011;23615;51.506;7.678;2023-04-25T05:13:52;5.83;;;2.10;;
37777;SDS011;23615;51.506;7.678;2023-04-25T05:16:17;6.40;;;2.30;;
37777;SDS011;23615;51.506;7.678;2023-04-25T05:18:43;5.10;;;1.92;;
37777;SDS011;23615;51.506;7.678;2023-04-25T05:21:08;7.63;;;1.90;;
37777;SDS011;23615;51.506;7.678;2023-04-25T05:23:33;5.60;;;2.03;;
37777;SDS011;23615;51.506;7.678;2023-04-25T05:25:59;6.13;;;2.00;;
37777;SDS011;23615;51.506;7.678;2023-04-25T05:28:24;7.50;;;1.83;;
37777;SDS011;23615;51.506;7.678;2023-04-25T05:30:50;7.87;;;2.20;;
37777;SDS011;23615;51.506;7.678;2023-04-25T05:33:15;5.23;;;1.53;;
37777;SDS011;23615;51.506;7.678;2023-04-25T05:35:41;7.13;;;2.10;;
37777;SDS011;23615;51.506;7.678;2023-04-25T05:38:06;9.57;;;2.30;;
37777;SDS011;23615;51.506;7.678;2023-04-25T05:40:32;6.80;;;2.23;;
37777;SDS011;23615;51.506;7.678;2023-04-25T05:42:57;6.53;;;1.93;;
37777;SDS011;23615;51.506;7.678;2023-04-25T05:45:22;9.50;;;2.63;;
37777;SDS011;23615;51.506;7.678;2023-04-25T05:47:48;7.10;;;2.07;;
37777;SDS011;23615;51.506;7.678;2023-04-25T05:50:13;7.65;;;2.22;;
37777;SDS011;23615;51.506;7.678;2023-04-25T05:52:38;6.50;;;2.40;;
37777;SDS011;23615;51.506;7.678;2023-04-25T05:55:04;8.43;;;2.53;;
37777;SDS011;23615;51.506;7.678;2023-04-25T05:57:30;8.45;;;2.53;;
37777;SDS011;23615;51.506;7.678;2023-04-25T05:59:56;8.63;;;2.30;;
37777;SDS011;23615;51.506;7.678;2023-04-25T06:02:21;9.33;;;2.47;;
37777;SDS011;23615;51.506;7.678;2023-04-25T06:04:48;9.77;;;2.43;;
37777;SDS011;23615;51.506;7.678;2023-04-25T06:07:15;8.05;;;2.75;;
37777;SDS011;23615;51.506;7.678;2023-04-25T06:09:40;5.73;;;1.93;;
37777;SDS011;23615;51.506;7.678;2023-04-25T06:12:05;10.07;;;2.53;;
37777;SDS011;23615;51.506;7.678;2023-04-25T06:14:31;9.63;;;3.30;;
37777;SDS011;23615;51.506;7.678;2023-04-25T06:16:57;9.73;;;3.05;;
37777;SDS011;23615;51.506;7.678;2023-04-25T06:19:22;9.47;;;2.87;;
37777;SDS011;23615;51.506;7.678;2023-04-25T06:21:48;8.13;;;2.93;;
37777;SDS011;23615;51.506;7.678;2023-04-25T06:24:13;9.37;;;3.37;;
37777;SDS011;23615;51.506;7.678;2023-04-25T06:26:38;8.23;;;2.97;;
37777;SDS011;23615;51.506;7.678;2023-04-25T06:29:04;9.70;;;3.33;;
37777;SDS011;23615;51.506;7.678;2023-04-25T06:31:29;10.07;;;3.47;;
37777;SDS011;23615;51.506;7.678;2023-04-25T06:33:57;9.05;;;3.35;;
37777;SDS011;23615;51.506;7.678;2023-04-25T06:36:22;10.32;;;4.40;;
37777;SDS011;23615;51.506;7.678;2023-04-25T06:38:50;10.50;;;4.03;;
37777;SDS011;23615;51.506;7.678;2023-04-25T06:41:16;8.60;;;3.05;;
37777;SDS011;23615;51.506;7.678;2023-04-25T06:43:41;8.60;;;3.33;;
37777;SDS011;23615;51.506;7.678;2023-04-25T06:46:06;11.23;;;3.40;;
37777;SDS011;23615;51.506;7.678;2023-04-25T06:48:31;10.67;;;4.03;;
37777;SDS011;23615;51.506;7.678;2023-04-25T06:50:57;10.30;;;4.07;;
37777;SDS011;23615;51.506;7.678;2023-04-25T06:53:22;11.80;;;4.37;;
37777;SDS011;23615;51.506;7.678;2023-04-25T06:55:47;11.47;;;4.67;;
37777;SDS011;23615;51.506;7.678;2023-04-25T06:58:12;9.97;;;4.47;;
37777;SDS011;23615;51.506;7.678;2023-04-25T07:00:38;8.97;;;3.97;;
37777;SDS011;23615;51.506;7.678;2023-04-25T07:03:03;9.57;;;4.20;;
37777;SDS011;23615;51.506;7.678;2023-04-25T07:05:28;11.40;;;4.47;;
37777;SDS011;23615;51.506;7.678;2023-04-25T07:07:54;8.73;;;4.50;;
37777;SDS011;23615;51.506;7.678;2023-04-25T07:10:19;10.20;;;4.30;;
37777;SDS011;23615;51.506;7.678;2023-04-25T07:12:46;12.67;;;5.53;;
37777;SDS011;23615;51.506;7.678;2023-04-25T07:15:11;11.57;;;4.50;;
37777;SDS011;23615;51.506;7.678;2023-04-25T07:17:36;12.00;;;4.53;;
37777;SDS011;23615;51.506;7.678;2023-04-25T07:20:02;11.32;;;4.25;;
37777;SDS011;23615;51.506;7.678;2023-04-25T07:22:28;10.30;;;3.97;;
37777;SDS011;23615;51.506;7.678;2023-04-25T07:24:54;13.32;;;4.40;;
37777;SDS011;23615;51.506;7.678;2023-04-25T07:27:19;8.90;;;3.72;;
37777;SDS011;23615;51.506;7.678;2023-04-25T07:29:45;7.32;;;3.75;;
37777;SDS011;23615;51.506;7.678;2023-04-25T07:32:10;12.17;;;4.00;;
37777;SDS011;23615;51.506;7.678;2023-04-25T07:34:37;14.95;;;5.35;;
37777;SDS011;23615;51.506;7.678;2023-04-25T07:37:03;14.20;;;4.93;;
37777;SDS011;23615;51.506;7.678;2023-04-25T07:39:29;10.65;;;4.88;;
37777;SDS011;23615;51.506;7.678;2023-04-25T07:41:54;13.13;;;3.75;;
37777;SDS011;23615;51.506;7.678;2023-04-25T07:44:19;10.57;;;4.35;;
37777;SDS011;23615;51.506;7.678;2023-04-25T07:46:45;11.15;;;3.40;;
37777;SDS011;23615;51.506;7.678;2023-04-25T07:49:10;13.73;;;2.83;;
37777;SDS011;23615;51.506;7.678;2023-04-25T07:51:36;9.17;;;2.53;;
37777;SDS011;23615;51.506;7.678;2023-04-25T07:54:01;13.53;;;2.43;;
37777;SDS011;23615;51.506;7.678;2023-04-25T07:56:26;12.03;;;2.80;;
37777;SDS011;23615;51.506;7.678;2023-04-25T07:58:52;6.57;;;2.30;;
37777;SDS011;23615;51.506;7.678;2023-04-25T08:01:17;7.50;;;2.83;;
37777;SDS011;23615;51.506;7.678;2023-04-25T08:03:43;12.45;;;5.30;;
37777;SDS011;23615;51.506;7.678;2023-04-25T08:06:09;13.30;;;4.68;;
37777;SDS011;23615;51.506;7.678;2023-04-25T08:08:34;10.30;;;3.15;;
37777;SDS011;23615;51.506;7.678;2023-04-25T08:10:59;10.02;;;2.55;;
37777;SDS011;23615;51.506;7.678;2023-04-25T08:13:25;8.53;;;1.90;;
37777;SDS011;23615;51.506;7.678;2023-04-25T08:15:50;9.30;;;2.57;;
37777;SDS011;23615;51.506;7.678;2023-04-25T08:18:15;10.77;;;2.80;;
37777;SDS011;23615;51.506;7.678;2023-04-25T08:20:41;8.97;;;2.10;;
37777;SDS011;23615;51.506;7.678;2023-04-25T08:23:06;9.23;;;2.73;;
37777;SDS011;23615;51.506;7.678;2023-04-25T08:25:32;10.18;;;2.78;;
37777;SDS011;23615;51.506;7.678;2023-04-25T08:27:57;10.83;;;3.40;;
37777;SDS011;23615;51.506;7.678;2023-04-25T08:30:24;11.05;;;3.33;;
37777;SDS011;23615;51.506;7.678;2023-04-25T08:32:49;10.10;;;3.63;;
37777;SDS011;23615;51.506;7.678;2023-04-25T08:35:15;9.40;;;2.47;;
37777;SDS011;23615;51.506;7.678;2023-04-25T08:37:41;7.10;;;2.37;;
37777;SDS011;23615;51.506;7.678;2023-04-25T08:40:07;11.47;;;3.43;;
37777;SDS011;23615;51.506;7.678;2023-04-25T08:42:36;7.95;;;2.05;;
37777;SDS011;23615;51.506;7.678;2023-04-25T08:45:02;9.43;;;2.80;;
37777;SDS011;23615;51.506;7.678;2023-04-25T08:47:28;7.72;;;2.50;;
37777;SDS011;23615;51.506;7.678;2023-04-25T08:49:54;7.38;;;2.08;;
37777;SDS011;23615;51.506;7.678;2023-04-25T08:52:21;10.10;;;2.55;;
37777;SDS011;23615;51.506;7.678;2023-04-25T08:54:49;7.97;;;2.27;;
37777;SDS011;23615;51.506;7.678;2023-04-25T08:57:16;6.45;;;2.35;;
37777;SDS011;23615;51.506;7.678;2023-04-25T08:59:42;8.60;;;2.03;;
37777;SDS011;23615;51.506;7.678;2023-04-25T09:02:10;7.63;;;2.25;;
37777;SDS011;23615;51.506;7.678;2023-04-25T09:04:39;7.97;;;2.13;;
37777;SDS011;23615;51.506;7.678;2023-04-25T09:07:05;8.68;;;2.85;;
37777;SDS011;23615;51.506;7.678;2023-04-25T09:09:31;8.13;;;1.83;;
37777;SDS011;23615;51.506;7.678;2023-04-25T09:11:56;8.93;;;2.37;;
37777;SDS011;23615;51.506;7.678;2023-04-25T09:14:22;8.57;;;2.77;;
37777;SDS011;23615;51.506;7.678;2023-04-25T09:16:58;8.10;;;2.30;;
37777;SDS011;23615;51.506;7.678;2023-04-25T09:19:25;5.07;;;1.98;;
37777;SDS011;23615;51.506;7.678;2023-04-25T09:21:56;9.18;;;1.95;;
37777;SDS011;23615;51.506;7.678;2023-04-25T09:24:55;7.38;;;1.90;;
37777;SDS011;23615;51.506;7.678;2023-04-25T09:27:19;3.42;;;1.15;;
37777;SDS011;23615;51.506;7.678;2023-04-25T09:29:50;6.15;;;1.77;;
37777;SDS011;23615;51.506;7.678;2023-04-25T09:32:23;4.95;;;1.30;;
37777;SDS011;23615;51.506;7.678;2023-04-25T09:34:50;4.53;;;1.30;;
37777;SDS011;23615;51.506;7.678;2023-04-25T09:37:23;5.70;;;1.42;;
37777;SDS011;23615;51.506;7.678;2023-04-25T09:39:54;7.25;;;1.40;;
37777;SDS011;23615;51.506;7.678;2023-04-25T09:42:24;8.02;;;1.40;;
37777;SDS011;23615;51.506;7.678;2023-04-25T09:44:54;5.95;;;1.17;;
37777;SDS011;23615;51.506;7.678;2023-04-25T09:47:22;6.50;;;1.25;;
37777;SDS011;23615;51.506;7.678;2023-04-25T09:49:48;4.55;;;1.08;;
37777;SDS011;23615;51.506;7.678;2023-04-25T09:52:18;7.35;;;1.60;;
37777;SDS011;23615;51.506;7.678;2023-04-25T09:54:48;5.75;;;1.60;;
37777;SDS011;23615;51.506;7.678;2023-04-25T09:59:48;9.47;;;1.40;;
37777;SDS011;23615;51.506;7.678;2023-04-25T10:02:16;4.35;;;1.27;;
37777;SDS011;23615;51.506;7.678;2023-04-25T10:04:47;8.73;;;1.10;;
37777;SDS011;23615;51.506;7.678;2023-04-25T10:07:19;5.30;;;1.43;;
37777;SDS011;23615;51.506;7.678;2023-04-25T10:09:51;4.25;;;1.80;;
37777;SDS011;23615;51.506;7.678;2023-04-25T10:12:33;6.15;;;1.75;;
37777;SDS011;23615;51.506;7.678;2023-04-25T10:14:59;6.20;;;1.02;;
37777;SDS011;23615;51.506;7.678;2023-04-25T10:17:26;4.65;;;1.15;;
37777;SDS011;23615;51.506;7.678;2023-04-25T10:20:01;5.73;;;0.93;;
37777;SDS011;23615;51.506;7.678;2023-04-25T10:22:31;4.65;;;0.90;;
37777;SDS011;23615;51.506;7.678;2023-04-25T10:24:59;6.88;;;0.90;;
37777;SDS011;23615;51.506;7.678;2023-04-25T10:27:28;4.18;;;0.70;;
37777;SDS011;23615;51.506;7.678;2023-04-25T10:30:03;3.05;;;0.70;;
37777;SDS011;23615;51.506;7.678;2023-04-25T10:32:41;3.80;;;0.87;;
37777;SDS011;23615;51.506;7.678;2023-04-25T10:35:17;3.15;;;0.50;;
37777;SDS011;23615;51.506;7.678;2023-04-25T10:40:30;5.47;;;1.00;;
37777;SDS011;23615;51.506;7.678;2023-04-25T10:42:56;4.40;;;0.90;;
37777;SDS011;23615;51.506;7.678;2023-04-25T10:45:56;2.22;;;0.80;;
37777;SDS011;23615;51.506;7.678;2023-04-25T10:48:27;4.03;;;0.98;;
37777;SDS011;23615;51.506;7.678;2023-04-25T10:51:06;6.35;;;1.20;;
37777;SDS011;23615;51.506;7.678;2023-04-25T10:53:35;3.70;;;0.90;;
37777;SDS011;23615;51.506;7.678;2023-04-25T10:56:00;4.20;;;1.33;;
37777;SDS011;23615;51.506;7.678;2023-04-25T10:58:33;5.20;;;0.80;;
37777;SDS011;23615;51.506;7.678;2023-04-25T11:00:59;4.13;;;0.80;;
37777;SDS011;23615;51.506;7.678;2023-04-25T11:03:26;6.70;;;0.85;;
37777;SDS011;23615;51.506;7.678;2023-04-25T11:05:51;6.13;;;0.93;;
37777;SDS011;23615;51.506;7.678;2023-04-25T11:08:18;5.97;;;0.90;;
37777;SDS011;23615;51.506;7.678;2023-04-25T11:11:02;4.20;;;0.65;;
37777;SDS011;23615;51.506;7.678;2023-04-25T11:13:30;3.60;;;0.68;;
37777;SDS011;23615;51.506;7.678;2023-04-25T11:15:55;5.72;;;0.80;;
37777;SDS011;23615;51.506;7.678;2023-04-25T11:18:21;4.67;;;0.97;;
37777;SDS011;23615;51.506;7.678;2023-04-25T11:20:47;2.43;;;0.80;;
37777;SDS011;23615;51.506;7.678;2023-04-25T11:23:16;5.90;;;0.80;;
37777;SDS011;23615;51.506;7.678;2023-04-25T11:25:42;4.82;;;0.57;;
37777;SDS011;23615;51.506;7.678;2023-04-25T11:28:07;5.73;;;0.80;;
37777;SDS011;23615;51.506;7.678;2023-04-25T11:30:32;4.03;;;1.10;;
37777;SDS011;23615;51.506;7.678;2023-04-25T11:32:58;4.27;;;0.93;;
37777;SDS011;23615;51.506;7.678;2023-04-25T11:35:23;6.82;;;1.00;;
37777;SDS011;23615;51.506;7.678;2023-04-25T11:37:50;4.03;;;0.68;;
37777;SDS011;23615;51.506;7.678;2023-04-25T11:40:16;4.67;;;0.77;;
37777;SDS011;23615;51.506;7.678;2023-04-25T11:42:45;4.67;;;0.83;;
37777;SDS011;23615;51.506;7.678;2023-04-25T11:45:11;4.63;;;0.98;;
37777;SDS011;23615;51.506;7.678;2023-04-25T11:47:37;4.78;;;1.08;;
37777;SDS011;23615;51.506;7.678;2023-04-25T11:50:03;3.50;;;0.80;;
37777;SDS011;23615;51.506;7.678;2023-04-25T11:52:37;3.92;;;0.88;;
37777;SDS011;23615;51.506;7.678;2023-04-25T11:55:05;3.58;;;0.75;;
37777;SDS011;23615;51.506;7.678;2023-04-25T11:57:31;4.38;;;0.60;;
37777;SDS011;23615;51.506;7.678;2023-04-25T12:00:04;5.05;;;0.70;;
37777;SDS011;23615;51.506;7.678;2023-04-25T12:02:43;4.10;;;0.52;;
37777;SDS011;23615;51.506;7.678;2023-04-25T12:05:10;2.92;;;0.45;;
37777;SDS011;23615;51.506;7.678;2023-04-25T12:07:37;1.63;;;0.35;;
37777;SDS011;23615;51.506;7.678;2023-04-25T12:12:33;4.32;;;0.40;;
37777;SDS011;23615;51.506;7.678;2023-04-25T12:15:08;2.35;;;0.50;;
37777;SDS011;23615;51.506;7.678;2023-04-25T12:17:41;1.63;;;0.38;;
37777;SDS011;23615;51.506;7.678;2023-04-25T12:20:12;1.50;;;0.40;;
37777;SDS011;23615;51.506;7.678;2023-04-25T12:22:40;2.97;;;0.40;;
37777;SDS011;23615;51.506;7.678;2023-04-25T12:25:09;3.85;;;0.30;;
37777;SDS011;23615;51.506;7.678;2023-04-25T12:27:38;1.38;;;0.35;;
37777;SDS011;23615;51.506;7.678;2023-04-25T12:30:07;3.65;;;0.38;;
37777;SDS011;23615;51.506;7.678;2023-04-25T12:32:33;2.20;;;0.30;;
37777;SDS011;23615;51.506;7.678;2023-04-25T12:34:58;2.10;;;0.40;;
37777;SDS011;23615;51.506;7.678;2023-04-25T12:37:24;1.77;;;0.50;;
37777;SDS011;23615;51.506;7.678;2023-04-25T12:45:22;1.73;;;0.20;;
37777;SDS011;23615;51.506;7.678;2023-04-25T12:47:48;0.73;;;0.20;;
37777;SDS011;23615;51.506;7.678;2023-04-25T12:50:13;1.33;;;0.33;;
37777;SDS011;23615;51.506;7.678;2023-04-25T12:52:38;1.20;;;0.10;;
37777;SDS011;23615;51.506;7.678;2023-04-25T12:55:04;1.50;;;0.20;;
37777;SDS011;23615;51.506;7.678;2023-04-25T12:57:30;1.17;;;0.20;;
37777;SDS011;23615;51.506;7.678;2023-04-25T12:59:55;0.70;;;0.10;;
37777;SDS011;23615;51.506;7.678;2023-04-25T13:02:21;2.83;;;0.30;;
37777;SDS011;23615;51.506;7.678;2023-04-25T13:04:46;2.53;;;0.13;;
37777;SDS011;23615;51.506;7.678;2023-04-25T13:07:12;2.07;;;0.20;;
37777;SDS011;23615;51.506;7.678;2023-04-25T13:09:37;1.80;;;0.20;;
37777;SDS011;23615;51.506;7.678;2023-04-25T13:12:03;1.05;;;0.38;;
37777;SDS011;23615;51.506;7.678;2023-04-25T13:14:29;2.80;;;0.60;;
37777;SDS011;23615;51.506;7.678;2023-04-25T13:16:54;1.50;;;0.20;;
37777;SDS011;23615;51.506;7.678;2023-04-25T13:19:19;1.70;;;0.10;;
37777;SDS011;23615;51.506;7.678;2023-04-25T13:21:45;0.43;;;0.20;;
37777;SDS011;23615;51.506;7.678;2023-04-25T13:24:10;0.87;;;0.10;;
37777;SDS011;23615;51.506;7.678;2023-04-25T13:26:35;2.30;;;0.20;;
37777;SDS011;23615;51.506;7.678;2023-04-25T13:29:01;2.43;;;0.20;;
37777;SDS011;23615;51.506;7.678;2023-04-25T13:31:28;2.17;;;0.30;;
37777;SDS011;23615;51.506;7.678;2023-04-25T13:33:54;2.97;;;0.20;;
37777;SDS011;23615;51.506;7.678;2023-04-25T13:36:20;1.60;;;0.10;;
37777;SDS011;23615;51.506;7.678;2023-04-25T13:38:45;2.25;;;0.43;;
37777;SDS011;23615;51.506;7.678;2023-04-25T13:41:12;1.60;;;0.40;;
37777;SDS011;23615;51.506;7.678;2023-04-25T13:43:42;1.80;;;0.35;;
37777;SDS011;23615;51.506;7.678;2023-04-25T13:46:08;6.37;;;0.47;;
37777;SDS011;23615;51.506;7.678;2023-04-25T13:48:33;2.27;;;0.20;;
37777;SDS011;23615;51.506;7.678;2023-04-25T13:50:58;1.37;;;0.40;;
37777;SDS011;23615;51.506;7.678;2023-04-25T13:53:23;3.13;;;0.40;;
37777;SDS011;23615;51.506;7.678;2023-04-25T13:55:49;1.80;;;0.22;;
37777;SDS011;23615;51.506;7.678;2023-04-25T13:58:15;1.95;;;0.40;;
37777;SDS011;23615;51.506;7.678;2023-04-25T14:00:40;1.83;;;0.50;;
37777;SDS011;23615;51.506;7.678;2023-04-25T14:03:08;1.53;;;0.20;;
37777;SDS011;23615;51.506;7.678;2023-04-25T14:05:36;2.45;;;0.20;;
37777;SDS011;23615;51.506;7.678;2023-04-25T14:08:03;1.00;;;0.20;;
37777;SDS011;23615;51.506;7.678;2023-04-25T14:10:32;2.72;;;0.30;;
37777;SDS011;23615;51.506;7.678;2023-04-25T14:12:58;2.22;;;0.50;;
37777;SDS011;23615;51.506;7.678;2023-04-25T14:18:05;1.92;;;0.20;;
37777;SDS011;23615;51.506;7.678;2023-04-25T14:20:30;1.63;;;0.30;;
37777;SDS011;23615;51.506;7.678;2023-04-25T14:22:56;2.03;;;0.30;;
37777;SDS011;23615;51.506;7.678;2023-04-25T14:25:23;1.10;;;0.22;;
37777;SDS011;23615;51.506;7.678;2023-04-25T14:27:48;2.65;;;0.25;;
37777;SDS011;23615;51.506;7.678;2023-04-25T14:30:20;2.08;;;0.40;;
37777;SDS011;23615;51.506;7.678;2023-04-25T14:32:46;2.20;;;0.40;;
37777;SDS011;23615;51.506;7.678;2023-04-25T14:35:11;0.90;;;0.20;;
37777;SDS011;23615;51.506;7.678;2023-04-25T14:37:37;0.75;;;0.32;;
37777;SDS011;23615;51.506;7.678;2023-04-25T14:40:02;1.87;;;0.20;;
37777;SDS011;23615;51.506;7.678;2023-04-25T14:42:29;1.50;;;0.30;;
37777;SDS011;23615;51.506;7.678;2023-04-25T14:44:55;2.65;;;0.30;;
37777;SDS011;23615;51.506;7.678;2023-04-25T14:47:20;1.27;;;0.20;;
37777;SDS011;23615;51.506;7.678;2023-04-25T14:49:45;1.47;;;0.50;;
37777;SDS011;23615;51.506;7.678;2023-04-25T14:52:16;2.90;;;0.57;;
37777;SDS011;23615;51.506;7.678;2023-04-25T14:54:41;2.37;;;0.43;;